Goetzville, Michigan
Current Conditions -  °F | °C
As of 1:54 AM on Thursday 27 Nov 2014 (Local Time) from KDRM Reporting Station
Light Snow Light Snow  
Wind Chill: 26°   Ceiling: 2800
Heat Index: 26°   Visibility: 7mi
Dew Point: 25°   Wind: 0mph
Humidity: 97%   Direction: NA
Pressure: 30.11"   Gusts: NA
Location:  46.06°N, 84.09°W
Report Text: KDRM 270654Z AUTO 00000KT 7SM -SN SCT023 BKN028 OVC046 M03/M04 A3011 RMK AO2 T10331037
Loading
Personal Weather Stations






























Interactive Weather Map New forecast layout! Learn more

10-Day Weather Forecast

Advertisements
Track Severe Weather on mobile